Cayucos, California
Current Conditions -  °F | °C
As of 12:56 AM on Saturday 22 Nov 2014 (Local Time) from KSBP Reporting Station
Clear Clear  
Wind Chill: 45°   Ceiling: Unl
Heat Index: 48°   Visibility: 10mi
Dew Point: 44°   Wind: 7mph
Humidity: 86%   Direction: 120°ESE
Pressure: 30.13"   Gusts: NA
Location:  35.44°N, 120.89°W
Report Text: KSBP 220856Z AUTO 12006KT 10SM CLR 09/07 A3013 RMK AO2 SLP204 T00890067 50001
Loading
Personal Weather Stations






























Interactive Weather Map New forecast layout! Learn more

10-Day Weather Forecast

Advertisements
Track Severe Weather on mobile